KPGV/PGV METAR and TAF weather

Enter ICAO airport designator
Station Type Date Time Source
KPGV METAR 2020/08/15 10:15 UTC NOAA

KPGV 151015Z AUTO 00000KT 7SM -RA BKN004 BKN009 23/23 A2993 RMK AO2 P0001


Station Type Date Time Source
KPGV Decoded METAR 2020/08/15 10:15 UTC NOAA

Pitt-Greenville Airport, NC, United States (KPGV) 35-38N 077-24W
Aug 15, 2020 - 06:15 AM EDT / 2020.08.15 1015 UTC
Wind: Calm:0
Visibility: 7 mile(s):0
Sky conditions: mostly cloudy
Weather: light rain
Precipitation last hour: 0.01 inches
Temperature: 73 F (23 C)
Dew Point: 73 F (23 C)
Relative Humidity: 100%
Pressure (altimeter): 29.93 in. Hg (1013 hPa)
ob: KPGV 151015Z AUTO 00000KT 7SM -RA BKN004 BKN009 23/23 A2993 RMK AO2 P0001
cycle: 10

Station Type Date Time Source
KPGV TAF 2020/08/15 08:18 UTC NOAA

TAF
AMD KPGV 150816Z 1508/1606 00000KT 4SM BR VCTS BKN005 BKN015CB
FM151400 08003KT 4SM SHRA VCTS SCT015CB BKN025
FM160000 10004KT 3SM -SHRA OVC015
AMD LTD TO CLD VIS AND WIND

Example: see airport list